sensor_id;sensor_type;location;lat;lon;timestamp;temperature;humidity
19974;DHT22;10148;47.694;9.442;2022-09-21T00:02:03;9.90;99.90
19974;DHT22;10148;47.694;9.442;2022-09-21T00:04:29;9.90;99.90
19974;DHT22;10148;47.694;9.442;2022-09-21T00:06:54;9.90;99.90
19974;DHT22;10148;47.694;9.442;2022-09-21T00:09:20;9.80;99.90
19974;DHT22;10148;47.694;9.442;2022-09-21T00:11:45;9.80;99.90
19974;DHT22;10148;47.694;9.442;2022-09-21T00:14:12;9.80;99.90
19974;DHT22;10148;47.694;9.442;2022-09-21T00:16:40;9.80;99.90
19974;DHT22;10148;47.694;9.442;2022-09-21T00:19:06;9.80;99.90
19974;DHT22;10148;47.694;9.442;2022-09-21T00:21:33;9.80;99.90
19974;DHT22;10148;47.694;9.442;2022-09-21T00:23:59;9.80;99.90
19974;DHT22;10148;47.694;9.442;2022-09-21T00:26:27;9.80;99.90
19974;DHT22;10148;47.694;9.442;2022-09-21T00:29:03;9.80;99.90
19974;DHT22;10148;47.694;9.442;2022-09-21T00:31:29;9.80;99.90
19974;DHT22;10148;47.694;9.442;2022-09-21T00:33:56;9.80;99.90
19974;DHT22;10148;47.694;9.442;2022-09-21T00:36:24;9.80;99.90
19974;DHT22;10148;47.694;9.442;2022-09-21T00:38:55;9.80;99.90
19974;DHT22;10148;47.694;9.442;2022-09-21T00:41:21;9.80;99.90
19974;DHT22;10148;47.694;9.442;2022-09-21T00:46:33;9.70;99.90
19974;DHT22;10148;47.694;9.442;2022-09-21T00:49:00;9.70;99.90
19974;DHT22;10148;47.694;9.442;2022-09-21T00:51:26;9.70;99.90
19974;DHT22;10148;47.694;9.442;2022-09-21T00:53:55;9.60;99.90
19974;DHT22;10148;47.694;9.442;2022-09-21T00:56:23;9.60;99.90
19974;DHT22;10148;47.694;9.442;2022-09-21T00:58:50;9.50;99.90
19974;DHT22;10148;47.694;9.442;2022-09-21T01:01:17;9.50;99.90
19974;DHT22;10148;47.694;9.442;2022-09-21T01:03:45;9.50;99.90
19974;DHT22;10148;47.694;9.442;2022-09-21T01:06:12;9.40;99.90
19974;DHT22;10148;47.694;9.442;2022-09-21T01:08:38;9.40;99.90
19974;DHT22;10148;47.694;9.442;2022-09-21T01:11:51;9.40;99.90
19974;DHT22;10148;47.694;9.442;2022-09-21T01:14:32;9.30;99.90
19974;DHT22;10148;47.694;9.442;2022-09-21T01:18:11;9.20;99.90
19974;DHT22;10148;47.694;9.442;2022-09-21T01:31:39;9.00;99.90
19974;DHT22;10148;47.694;9.442;2022-09-21T01:34:10;8.90;99.90
19974;DHT22;10148;47.694;9.442;2022-09-21T01:36:41;8.90;99.90
19974;DHT22;10148;47.694;9.442;2022-09-21T01:39:12;8.90;99.90
19974;DHT22;10148;47.694;9.442;2022-09-21T01:41:40;8.80;99.90
19974;DHT22;10148;47.694;9.442;2022-09-21T01:44:11;8.80;99.90
19974;DHT22;10148;47.694;9.442;2022-09-21T01:46:38;8.80;99.90
19974;DHT22;10148;47.694;9.442;2022-09-21T01:49:26;8.70;99.90
19974;DHT22;10148;47.694;9.442;2022-09-21T01:52:01;8.70;99.90
19974;DHT22;10148;47.694;9.442;2022-09-21T01:54:38;8.70;99.90
19974;DHT22;10148;47.694;9.442;2022-09-21T01:59:57;8.70;99.90
19974;DHT22;10148;47.694;9.442;2022-09-21T02:02:36;8.60;99.90
19974;DHT22;10148;47.694;9.442;2022-09-21T02:05:04;8.60;99.90
19974;DHT22;10148;47.694;9.442;2022-09-21T02:07:31;8.60;99.90
19974;DHT22;10148;47.694;9.442;2022-09-21T02:09:59;8.60;99.90
19974;DHT22;10148;47.694;9.442;2022-09-21T02:12:25;8.50;99.90
19974;DHT22;10148;47.694;9.442;2022-09-21T02:14:52;8.50;99.90
19974;DHT22;10148;47.694;9.442;2022-09-21T02:20:17;8.50;99.90
19974;DHT22;10148;47.694;9.442;2022-09-21T02:23:22;8.50;99.90
19974;DHT22;10148;47.694;9.442;2022-09-21T02:26:07;8.50;99.90
19974;DHT22;10148;47.694;9.442;2022-09-21T02:31:17;8.40;99.90
19974;DHT22;10148;47.694;9.442;2022-09-21T02:33:55;8.40;99.90
19974;DHT22;10148;47.694;9.442;2022-09-21T02:36:44;8.40;99.90
19974;DHT22;10148;47.694;9.442;2022-09-21T02:39:52;8.40;99.90
19974;DHT22;10148;47.694;9.442;2022-09-21T02:42:19;8.40;99.90
19974;DHT22;10148;47.694;9.442;2022-09-21T02:45:06;8.40;99.90
19974;DHT22;10148;47.694;9.442;2022-09-21T02:47:56;8.40;99.90
19974;DHT22;10148;47.694;9.442;2022-09-21T02:50:34;8.40;99.90
19974;DHT22;10148;47.694;9.442;2022-09-21T02:53:02;8.30;99.90
19974;DHT22;10148;47.694;9.442;2022-09-21T02:55:30;8.30;99.90
19974;DHT22;10148;47.694;9.442;2022-09-21T02:57:56;8.20;99.90
19974;DHT22;10148;47.694;9.442;2022-09-21T03:00:22;8.20;99.90
19974;DHT22;10148;47.694;9.442;2022-09-21T03:02:48;8.20;99.90
19974;DHT22;10148;47.694;9.442;2022-09-21T03:05:14;8.20;99.90
19974;DHT22;10148;47.694;9.442;2022-09-21T03:07:40;8.20;99.90
19974;DHT22;10148;47.694;9.442;2022-09-21T03:10:06;8.20;99.90
19974;DHT22;10148;47.694;9.442;2022-09-21T03:12:33;8.20;99.90
19974;DHT22;10148;47.694;9.442;2022-09-21T03:14:59;8.20;99.90
19974;DHT22;10148;47.694;9.442;2022-09-21T03:17:25;8.10;99.90
19974;DHT22;10148;47.694;9.442;2022-09-21T03:19:52;8.10;99.90
19974;DHT22;10148;47.694;9.442;2022-09-21T03:22:22;8.10;99.90
19974;DHT22;10148;47.694;9.442;2022-09-21T03:24:48;8.10;99.90
19974;DHT22;10148;47.694;9.442;2022-09-21T03:27:19;8.10;99.90
19974;DHT22;10148;47.694;9.442;2022-09-21T03:29:45;8.10;99.90
19974;DHT22;10148;47.694;9.442;2022-09-21T03:32:12;8.10;99.90
19974;DHT22;10148;47.694;9.442;2022-09-21T03:34:39;8.00;99.90
19974;DHT22;10148;47.694;9.442;2022-09-21T03:37:05;8.00;99.90
19974;DHT22;10148;47.694;9.442;2022-09-21T03:39:31;8.00;99.90
19974;DHT22;10148;47.694;9.442;2022-09-21T03:41:57;8.00;99.90
19974;DHT22;10148;47.694;9.442;2022-09-21T03:44:24;8.00;99.90
19974;DHT22;10148;47.694;9.442;2022-09-21T03:46:50;7.90;99.90
19974;DHT22;10148;47.694;9.442;2022-09-21T03:49:16;7.90;99.90
19974;DHT22;10148;47.694;9.442;2022-09-21T03:51:42;7.90;99.90
19974;DHT22;10148;47.694;9.442;2022-09-21T03:54:07;7.90;99.90
19974;DHT22;10148;47.694;9.442;2022-09-21T03:56:33;7.90;99.90
19974;DHT22;10148;47.694;9.442;2022-09-21T03:58:59;7.80;99.90
19974;DHT22;10148;47.694;9.442;2022-09-21T04:01:24;7.80;99.90
19974;DHT22;10148;47.694;9.442;2022-09-21T04:03:50;7.80;99.90
19974;DHT22;10148;47.694;9.442;2022-09-21T04:06:16;7.80;99.90
19974;DHT22;10148;47.694;9.442;2022-09-21T04:08:41;7.80;99.90
19974;DHT22;10148;47.694;9.442;2022-09-21T04:11:13;7.80;99.90
19974;DHT22;10148;47.694;9.442;2022-09-21T04:13:39;7.80;99.90
19974;DHT22;10148;47.694;9.442;2022-09-21T04:16:06;7.80;99.90
19974;DHT22;10148;47.694;9.442;2022-09-21T04:18:31;7.80;99.90
19974;DHT22;10148;47.694;9.442;2022-09-21T04:20:57;7.80;99.90
19974;DHT22;10148;47.694;9.442;2022-09-21T04:23:23;7.80;99.90
19974;DHT22;10148;47.694;9.442;2022-09-21T04:25:49;7.70;99.90
19974;DHT22;10148;47.694;9.442;2022-09-21T04:28:17;7.70;99.90
19974;DHT22;10148;47.694;9.442;2022-09-21T04:30:43;7.60;99.90
19974;DHT22;10148;47.694;9.442;2022-09-21T04:33:09;7.60;99.90
19974;DHT22;10148;47.694;9.442;2022-09-21T04:35:34;7.50;99.90
19974;DHT22;10148;47.694;9.442;2022-09-21T04:38:00;7.50;99.90
19974;DHT22;10148;47.694;9.442;2022-09-21T04:40:26;7.50;99.90
19974;DHT22;10148;47.694;9.442;2022-09-21T04:42:52;7.50;99.90
19974;DHT22;10148;47.694;9.442;2022-09-21T04:45:19;7.50;99.90
19974;DHT22;10148;47.694;9.442;2022-09-21T04:47:45;7.40;99.90
19974;DHT22;10148;47.694;9.442;2022-09-21T04:50:10;7.40;99.90
19974;DHT22;10148;47.694;9.442;2022-09-21T04:52:36;7.40;99.90
19974;DHT22;10148;47.694;9.442;2022-09-21T04:55:01;7.40;99.90
19974;DHT22;10148;47.694;9.442;2022-09-21T04:57:27;7.40;99.90
19974;DHT22;10148;47.694;9.442;2022-09-21T04:59:52;7.30;99.90
19974;DHT22;10148;47.694;9.442;2022-09-21T05:02:18;7.30;99.90
19974;DHT22;10148;47.694;9.442;2022-09-21T05:04:43;7.20;99.90
19974;DHT22;10148;47.694;9.442;2022-09-21T05:07:09;7.30;99.90
19974;DHT22;10148;47.694;9.442;2022-09-21T05:09:34;7.30;99.90
19974;DHT22;10148;47.694;9.442;2022-09-21T05:12:19;7.30;99.90
19974;DHT22;10148;47.694;9.442;2022-09-21T05:14:44;7.30;99.90
19974;DHT22;10148;47.694;9.442;2022-09-21T05:17:11;7.20;99.90
19974;DHT22;10148;47.694;9.442;2022-09-21T05:19:36;7.20;99.90
19974;DHT22;10148;47.694;9.442;2022-09-21T05:22:02;7.20;99.90
19974;DHT22;10148;47.694;9.442;2022-09-21T05:24:28;7.20;99.90
19974;DHT22;10148;47.694;9.442;2022-09-21T05:26:53;7.30;99.90
19974;DHT22;10148;47.694;9.442;2022-09-21T05:29:19;7.20;99.90
19974;DHT22;10148;47.694;9.442;2022-09-21T05:31:50;7.20;99.90
19974;DHT22;10148;47.694;9.442;2022-09-21T05:39:37;7.20;99.90
19974;DHT22;10148;47.694;9.442;2022-09-21T05:42:03;7.20;99.90
19974;DHT22;10148;47.694;9.442;2022-09-21T05:44:29;7.30;99.90
19974;DHT22;10148;47.694;9.442;2022-09-21T05:47:03;7.30;99.90
19974;DHT22;10148;47.694;9.442;2022-09-21T05:50:00;7.30;99.90
19974;DHT22;10148;47.694;9.442;2022-09-21T05:55:42;7.30;99.90
19974;DHT22;10148;47.694;9.442;2022-09-21T06:03:28;7.50;99.90
19974;DHT22;10148;47.694;9.442;2022-09-21T06:05:55;7.50;99.90
19974;DHT22;10148;47.694;9.442;2022-09-21T06:08:20;7.50;99.90
19974;DHT22;10148;47.694;9.442;2022-09-21T06:10:46;7.60;99.90
19974;DHT22;10148;47.694;9.442;2022-09-21T06:13:12;7.60;99.90
19974;DHT22;10148;47.694;9.442;2022-09-21T06:15:38;7.70;99.90
19974;DHT22;10148;47.694;9.442;2022-09-21T06:18:04;7.70;99.90
19974;DHT22;10148;47.694;9.442;2022-09-21T06:20:30;7.80;99.90
19974;DHT22;10148;47.694;9.442;2022-09-21T06:23:00;7.90;99.90
19974;DHT22;10148;47.694;9.442;2022-09-21T06:25:26;7.90;99.90
19974;DHT22;10148;47.694;9.442;2022-09-21T06:27:51;8.00;99.90
19974;DHT22;10148;47.694;9.442;2022-09-21T06:30:17;8.00;99.90
19974;DHT22;10148;47.694;9.442;2022-09-21T06:32:42;8.10;99.90
19974;DHT22;10148;47.694;9.442;2022-09-21T06:35:08;8.20;99.90
19974;DHT22;10148;47.694;9.442;2022-09-21T06:37:34;8.20;99.90
19974;DHT22;10148;47.694;9.442;2022-09-21T06:39:59;8.30;99.90
19974;DHT22;10148;47.694;9.442;2022-09-21T06:42:26;8.40;99.90
19974;DHT22;10148;47.694;9.442;2022-09-21T06:44:51;8.50;99.90
19974;DHT22;10148;47.694;9.442;2022-09-21T06:47:17;8.60;99.90
19974;DHT22;10148;47.694;9.442;2022-09-21T06:49:43;8.70;99.90
19974;DHT22;10148;47.694;9.442;2022-09-21T06:52:08;8.70;99.90
19974;DHT22;10148;47.694;9.442;2022-09-21T06:54:34;8.80;99.90
19974;DHT22;10148;47.694;9.442;2022-09-21T06:56:59;8.90;99.90
19974;DHT22;10148;47.694;9.442;2022-09-21T06:59:25;9.00;99.90
19974;DHT22;10148;47.694;9.442;2022-09-21T07:01:50;9.00;99.90
19974;DHT22;10148;47.694;9.442;2022-09-21T07:04:16;9.10;99.90
19974;DHT22;10148;47.694;9.442;2022-09-21T07:06:42;9.20;99.90
19974;DHT22;10148;47.694;9.442;2022-09-21T07:09:07;9.30;99.90
19974;DHT22;10148;47.694;9.442;2022-09-21T07:11:33;9.30;99.90
19974;DHT22;10148;47.694;9.442;2022-09-21T07:13:58;9.40;99.90
19974;DHT22;10148;47.694;9.442;2022-09-21T07:16:24;9.50;99.90
19974;DHT22;10148;47.694;9.442;2022-09-21T07:18:49;9.50;99.90
19974;DHT22;10148;47.694;9.442;2022-09-21T07:21:15;9.50;99.90
19974;DHT22;10148;47.694;9.442;2022-09-21T07:23:41;9.60;99.90
19974;DHT22;10148;47.694;9.442;2022-09-21T07:26:11;9.60;99.90
19974;DHT22;10148;47.694;9.442;2022-09-21T07:28:37;9.70;99.90
19974;DHT22;10148;47.694;9.442;2022-09-21T07:31:11;9.80;99.90
19974;DHT22;10148;47.694;9.442;2022-09-21T07:33:42;9.90;99.90
19974;DHT22;10148;47.694;9.442;2022-09-21T07:36:09;10.00;99.90
19974;DHT22;10148;47.694;9.442;2022-09-21T07:38:36;10.10;99.90
19974;DHT22;10148;47.694;9.442;2022-09-21T07:41:03;10.20;99.90
19974;DHT22;10148;47.694;9.442;2022-09-21T07:43:29;10.30;99.90
19974;DHT22;10148;47.694;9.442;2022-09-21T07:45:54;10.30;99.90
19974;DHT22;10148;47.694;9.442;2022-09-21T07:48:20;10.40;99.90
19974;DHT22;10148;47.694;9.442;2022-09-21T07:50:47;10.40;99.90
19974;DHT22;10148;47.694;9.442;2022-09-21T07:53:13;10.50;99.90
19974;DHT22;10148;47.694;9.442;2022-09-21T07:55:41;10.50;99.90
19974;DHT22;10148;47.694;9.442;2022-09-21T07:58:07;10.60;99.90
19974;DHT22;10148;47.694;9.442;2022-09-21T08:00:51;10.70;99.90
19974;DHT22;10148;47.694;9.442;2022-09-21T08:03:16;10.90;99.90
19974;DHT22;10148;47.694;9.442;2022-09-21T08:05:42;10.90;99.90
19974;DHT22;10148;47.694;9.442;2022-09-21T08:08:07;10.90;99.90
19974;DHT22;10148;47.694;9.442;2022-09-21T08:10:33;10.90;99.90
19974;DHT22;10148;47.694;9.442;2022-09-21T08:13:00;10.90;99.90
19974;DHT22;10148;47.694;9.442;2022-09-21T08:15:25;10.90;99.90
19974;DHT22;10148;47.694;9.442;2022-09-21T08:17:52;11.00;99.90
19974;DHT22;10148;47.694;9.442;2022-09-21T08:20:18;11.20;99.90
19974;DHT22;10148;47.694;9.442;2022-09-21T08:22:44;11.40;99.90
19974;DHT22;10148;47.694;9.442;2022-09-21T08:25:09;11.50;99.90
19974;DHT22;10148;47.694;9.442;2022-09-21T08:27:35;11.50;99.90
19974;DHT22;10148;47.694;9.442;2022-09-21T08:30:02;11.70;99.90
19974;DHT22;10148;47.694;9.442;2022-09-21T08:32:27;11.80;99.90
19974;DHT22;10148;47.694;9.442;2022-09-21T08:34:53;11.90;99.90
19974;DHT22;10148;47.694;9.442;2022-09-21T08:37:19;11.90;99.90
19974;DHT22;10148;47.694;9.442;2022-09-21T08:39:46;12.10;99.90
19974;DHT22;10148;47.694;9.442;2022-09-21T08:44:53;12.20;99.90
19974;DHT22;10148;47.694;9.442;2022-09-21T08:47:44;12.30;99.90
19974;DHT22;10148;47.694;9.442;2022-09-21T08:50:38;12.50;99.90
19974;DHT22;10148;47.694;9.442;2022-09-21T08:53:17;12.70;99.90
19974;DHT22;10148;47.694;9.442;2022-09-21T08:55:44;12.80;99.90
19974;DHT22;10148;47.694;9.442;2022-09-21T08:58:30;12.80;99.90
19974;DHT22;10148;47.694;9.442;2022-09-21T09:12:15;13.40;99.90
19974;DHT22;10148;47.694;9.442;2022-09-21T09:17:47;13.60;99.90
19974;DHT22;10148;47.694;9.442;2022-09-21T09:20:28;13.60;99.90
19974;DHT22;10148;47.694;9.442;2022-09-21T09:25:41;13.60;99.90
19974;DHT22;10148;47.694;9.442;2022-09-21T09:28:25;13.60;99.90
19974;DHT22;10148;47.694;9.442;2022-09-21T09:31:15;13.80;99.90
19974;DHT22;10148;47.694;9.442;2022-09-21T09:33:51;13.90;99.90
19974;DHT22;10148;47.694;9.442;2022-09-21T09:36:19;13.90;99.90
19974;DHT22;10148;47.694;9.442;2022-09-21T09:38:51;14.10;99.90
19974;DHT22;10148;47.694;9.442;2022-09-21T09:44:35;14.10;99.90
19974;DHT22;10148;47.694;9.442;2022-09-21T09:47:27;14.20;99.90
19974;DHT22;10148;47.694;9.442;2022-09-21T09:50:20;14.10;99.90
19974;DHT22;10148;47.694;9.442;2022-09-21T09:52:48;14.20;99.90
19974;DHT22;10148;47.694;9.442;2022-09-21T09:55:24;14.50;99.90
19974;DHT22;10148;47.694;9.442;2022-09-21T09:57:52;14.70;99.90
19974;DHT22;10148;47.694;9.442;2022-09-21T10:00:20;14.80;99.90
19974;DHT22;10148;47.694;9.442;2022-09-21T10:02:51;14.90;99.90
19974;DHT22;10148;47.694;9.442;2022-09-21T10:07:48;15.00;99.90
19974;DHT22;10148;47.694;9.442;2022-09-21T10:12:46;15.00;99.90
19974;DHT22;10148;47.694;9.442;2022-09-21T10:15:12;15.00;99.90
19974;DHT22;10148;47.694;9.442;2022-09-21T10:17:38;15.00;99.90
19974;DHT22;10148;47.694;9.442;2022-09-21T10:20:05;15.10;99.90
19974;DHT22;10148;47.694;9.442;2022-09-21T10:22:32;15.10;99.90
19974;DHT22;10148;47.694;9.442;2022-09-21T10:24:59;15.40;99.90
19974;DHT22;10148;47.694;9.442;2022-09-21T10:27:33;15.70;99.90
19974;DHT22;10148;47.694;9.442;2022-09-21T10:29:59;16.00;99.90
19974;DHT22;10148;47.694;9.442;2022-09-21T10:32:26;16.10;99.90
19974;DHT22;10148;47.694;9.442;2022-09-21T10:35:15;16.10;99.90
19974;DHT22;10148;47.694;9.442;2022-09-21T10:37:46;16.10;99.90
19974;DHT22;10148;47.694;9.442;2022-09-21T10:42:45;16.50;99.90
19974;DHT22;10148;47.694;9.442;2022-09-21T10:45:17;16.60;99.90
19974;DHT22;10148;47.694;9.442;2022-09-21T10:50:24;16.80;99.90
19974;DHT22;10148;47.694;9.442;2022-09-21T10:53:40;16.60;99.90
19974;DHT22;10148;47.694;9.442;2022-09-21T10:58:21;16.70;99.90
19974;DHT22;10148;47.694;9.442;2022-09-21T11:00:48;16.70;99.90
19974;DHT22;10148;47.694;9.442;2022-09-21T11:06:03;16.90;99.90
19974;DHT22;10148;47.694;9.442;2022-09-21T11:08:35;17.00;99.90
19974;DHT22;10148;47.694;9.442;2022-09-21T11:13:46;17.10;99.90
19974;DHT22;10148;47.694;9.442;2022-09-21T11:18:59;17.10;99.90
19974;DHT22;10148;47.694;9.442;2022-09-21T11:24:40;17.10;99.90
19974;DHT22;10148;47.694;9.442;2022-09-21T11:27:13;17.20;99.90
19974;DHT22;10148;47.694;9.442;2022-09-21T11:29:51;17.20;99.90
19974;DHT22;10148;47.694;9.442;2022-09-21T11:35:21;17.00;99.90
19974;DHT22;10148;47.694;9.442;2022-09-21T11:38:02;17.10;99.90
19974;DHT22;10148;47.694;9.442;2022-09-21T11:46:07;17.30;99.90
19974;DHT22;10148;47.694;9.442;2022-09-21T11:51:51;17.60;99.90
19974;DHT22;10148;47.694;9.442;2022-09-21T11:57:17;17.70;99.90
19974;DHT22;10148;47.694;9.442;2022-09-21T12:02:41;17.90;99.90
19974;DHT22;10148;47.694;9.442;2022-09-21T12:05:14;17.90;99.90
19974;DHT22;10148;47.694;9.442;2022-09-21T12:13:37;18.30;99.90
19974;DHT22;10148;47.694;9.442;2022-09-21T12:16:21;18.40;99.90
19974;DHT22;10148;47.694;9.442;2022-09-21T12:19:21;18.40;99.90
19974;DHT22;10148;47.694;9.442;2022-09-21T12:21:58;18.50;99.90
19974;DHT22;10148;47.694;9.442;2022-09-21T12:24:38;18.60;99.90
19974;DHT22;10148;47.694;9.442;2022-09-21T12:27:38;18.80;99.90
19974;DHT22;10148;47.694;9.442;2022-09-21T12:30:19;18.50;99.90
19974;DHT22;10148;47.694;9.442;2022-09-21T12:35:41;19.00;99.90
19974;DHT22;10148;47.694;9.442;2022-09-21T12:38:15;19.20;99.90
19974;DHT22;10148;47.694;9.442;2022-09-21T12:40:53;18.90;99.90
19974;DHT22;10148;47.694;9.442;2022-09-21T12:43:43;18.90;99.90
19974;DHT22;10148;47.694;9.442;2022-09-21T12:48:43;19.30;99.90
19974;DHT22;10148;47.694;9.442;2022-09-21T12:51:24;19.40;99.90
19974;DHT22;10148;47.694;9.442;2022-09-21T12:53:54;19.60;99.90
19974;DHT22;10148;47.694;9.442;2022-09-21T12:56:43;19.70;99.90
19974;DHT22;10148;47.694;9.442;2022-09-21T13:02:19;19.90;99.90
19974;DHT22;10148;47.694;9.442;2022-09-21T13:05:14;20.00;99.90
19974;DHT22;10148;47.694;9.442;2022-09-21T13:08:02;20.10;99.90
19974;DHT22;10148;47.694;9.442;2022-09-21T13:16:35;20.40;99.90
19974;DHT22;10148;47.694;9.442;2022-09-21T13:19:15;20.20;99.90
19974;DHT22;10148;47.694;9.442;2022-09-21T13:21:43;19.80;99.90
19974;DHT22;10148;47.694;9.442;2022-09-21T13:24:29;19.70;99.90
19974;DHT22;10148;47.694;9.442;2022-09-21T13:26:56;19.80;99.90
19974;DHT22;10148;47.694;9.442;2022-09-21T13:29:30;20.10;99.90
19974;DHT22;10148;47.694;9.442;2022-09-21T13:34:39;20.10;99.90
19974;DHT22;10148;47.694;9.442;2022-09-21T13:47:51;20.00;99.90
19974;DHT22;10148;47.694;9.442;2022-09-21T13:50:26;19.80;99.90
19974;DHT22;10148;47.694;9.442;2022-09-21T13:53:17;19.90;99.90
19974;DHT22;10148;47.694;9.442;2022-09-21T13:55:48;20.00;99.90
19974;DHT22;10148;47.694;9.442;2022-09-21T13:58:23;20.10;99.90
19974;DHT22;10148;47.694;9.442;2022-09-21T14:00:58;20.10;99.90
19974;DHT22;10148;47.694;9.442;2022-09-21T14:03:31;20.00;99.90
19974;DHT22;10148;47.694;9.442;2022-09-21T14:08:48;20.00;99.90
19974;DHT22;10148;47.694;9.442;2022-09-21T14:11:36;19.70;99.90
19974;DHT22;10148;47.694;9.442;2022-09-21T14:14:39;20.00;99.90
19974;DHT22;10148;47.694;9.442;2022-09-21T14:17:35;20.30;99.90
19974;DHT22;10148;47.694;9.442;2022-09-21T14:20:02;20.50;99.90
19974;DHT22;10148;47.694;9.442;2022-09-21T14:22:31;20.40;99.90
19974;DHT22;10148;47.694;9.442;2022-09-21T14:25:24;20.40;99.90
19974;DHT22;10148;47.694;9.442;2022-09-21T14:27:51;20.40;99.90
19974;DHT22;10148;47.694;9.442;2022-09-21T14:30:22;20.20;99.90
19974;DHT22;10148;47.694;9.442;2022-09-21T14:35:40;20.00;99.90
19974;DHT22;10148;47.694;9.442;2022-09-21T14:38:29;19.90;99.90
19974;DHT22;10148;47.694;9.442;2022-09-21T14:40:59;20.00;99.90
19974;DHT22;10148;47.694;9.442;2022-09-21T14:43:29;20.10;99.90
19974;DHT22;10148;47.694;9.442;2022-09-21T15:02:39;19.90;99.90
19974;DHT22;10148;47.694;9.442;2022-09-21T15:05:23;20.00;99.90
19974;DHT22;10148;47.694;9.442;2022-09-21T15:07:58;19.80;99.90
19974;DHT22;10148;47.694;9.442;2022-09-21T15:16:16;19.80;99.90
19974;DHT22;10148;47.694;9.442;2022-09-21T15:18:47;19.90;99.90
19974;DHT22;10148;47.694;9.442;2022-09-21T15:21:22;20.00;99.90
19974;DHT22;10148;47.694;9.442;2022-09-21T15:23:49;20.00;99.90
19974;DHT22;10148;47.694;9.442;2022-09-21T15:26:22;19.90;99.90
19974;DHT22;10148;47.694;9.442;2022-09-21T15:28:53;19.80;99.90
19974;DHT22;10148;47.694;9.442;2022-09-21T15:31:20;19.60;99.90
19974;DHT22;10148;47.694;9.442;2022-09-21T15:33:46;19.50;99.90
19974;DHT22;10148;47.694;9.442;2022-09-21T15:36:37;19.50;99.90
19974;DHT22;10148;47.694;9.442;2022-09-21T15:39:03;19.40;99.90
19974;DHT22;10148;47.694;9.442;2022-09-21T15:44:19;19.40;99.90
19974;DHT22;10148;47.694;9.442;2022-09-21T15:46:48;19.50;99.90
19974;DHT22;10148;47.694;9.442;2022-09-21T15:49:16;19.60;99.90
19974;DHT22;10148;47.694;9.442;2022-09-21T15:51:49;19.20;99.90
19974;DHT22;10148;47.694;9.442;2022-09-21T15:54:29;19.30;99.90
19974;DHT22;10148;47.694;9.442;2022-09-21T15:57:02;19.20;99.90
19974;DHT22;10148;47.694;9.442;2022-09-21T15:59:32;19.00;99.90
19974;DHT22;10148;47.694;9.442;2022-09-21T16:02:00;19.00;99.90
19974;DHT22;10148;47.694;9.442;2022-09-21T16:04:34;18.90;99.90
19974;DHT22;10148;47.694;9.442;2022-09-21T16:07:08;18.80;99.90
19974;DHT22;10148;47.694;9.442;2022-09-21T16:09:48;18.90;99.90
19974;DHT22;10148;47.694;9.442;2022-09-21T16:14:48;18.90;99.90
19974;DHT22;10148;47.694;9.442;2022-09-21T16:17:35;18.90;99.90
19974;DHT22;10148;47.694;9.442;2022-09-21T16:20:20;18.80;99.90
19974;DHT22;10148;47.694;9.442;2022-09-21T16:22:52;18.50;99.90
19974;DHT22;10148;47.694;9.442;2022-09-21T16:25:30;18.40;99.90
19974;DHT22;10148;47.694;9.442;2022-09-21T16:30:52;17.80;99.90
19974;DHT22;10148;47.694;9.442;2022-09-21T16:38:42;17.00;99.90
19974;DHT22;10148;47.694;9.442;2022-09-21T16:41:08;16.80;99.90
19974;DHT22;10148;47.694;9.442;2022-09-21T16:43:35;16.60;99.90
19974;DHT22;10148;47.694;9.442;2022-09-21T16:46:10;16.50;99.90
19974;DHT22;10148;47.694;9.442;2022-09-21T16:48:35;16.40;99.90
19974;DHT22;10148;47.694;9.442;2022-09-21T16:51:01;16.20;99.90
19974;DHT22;10148;47.694;9.442;2022-09-21T16:53:27;16.00;99.90
19974;DHT22;10148;47.694;9.442;2022-09-21T16:55:53;16.00;99.90
19974;DHT22;10148;47.694;9.442;2022-09-21T16:58:19;15.90;99.90
19974;DHT22;10148;47.694;9.442;2022-09-21T17:00:50;15.70;99.90
19974;DHT22;10148;47.694;9.442;2022-09-21T17:03:17;15.60;99.90
19974;DHT22;10148;47.694;9.442;2022-09-21T17:05:43;15.60;99.90
19974;DHT22;10148;47.694;9.442;2022-09-21T17:08:10;15.50;99.90
19974;DHT22;10148;47.694;9.442;2022-09-21T17:10:39;15.40;99.90
19974;DHT22;10148;47.694;9.442;2022-09-21T17:13:05;15.30;99.90
19974;DHT22;10148;47.694;9.442;2022-09-21T17:15:32;15.20;99.90
19974;DHT22;10148;47.694;9.442;2022-09-21T17:17:58;15.00;99.90
19974;DHT22;10148;47.694;9.442;2022-09-21T17:22:52;14.80;99.90
19974;DHT22;10148;47.694;9.442;2022-09-21T17:25:17;14.70;99.90
19974;DHT22;10148;47.694;9.442;2022-09-21T17:27:43;14.60;99.90
19974;DHT22;10148;47.694;9.442;2022-09-21T17:30:11;14.40;99.90
19974;DHT22;10148;47.694;9.442;2022-09-21T17:32:37;14.30;99.90
19974;DHT22;10148;47.694;9.442;2022-09-21T17:35:38;14.20;99.90
19974;DHT22;10148;47.694;9.442;2022-09-21T17:38:04;14.10;99.90
19974;DHT22;10148;47.694;9.442;2022-09-21T17:40:31;14.00;99.90
19974;DHT22;10148;47.694;9.442;2022-09-21T17:43:17;13.90;99.90
19974;DHT22;10148;47.694;9.442;2022-09-21T17:46:22;13.70;99.90
19974;DHT22;10148;47.694;9.442;2022-09-21T17:48:52;13.60;99.90
19974;DHT22;10148;47.694;9.442;2022-09-21T17:51:17;13.60;99.90
19974;DHT22;10148;47.694;9.442;2022-09-21T17:54:03;13.40;99.90
19974;DHT22;10148;47.694;9.442;2022-09-21T17:57:00;13.30;99.90
19974;DHT22;10148;47.694;9.442;2022-09-21T17:59:32;13.20;99.90
19974;DHT22;10148;47.694;9.442;2022-09-21T18:01:59;13.10;99.90
19974;DHT22;10148;47.694;9.442;2022-09-21T18:04:30;13.00;99.90
19974;DHT22;10148;47.694;9.442;2022-09-21T18:06:59;12.90;99.90
19974;DHT22;10148;47.694;9.442;2022-09-21T18:09:25;12.80;99.90
19974;DHT22;10148;47.694;9.442;2022-09-21T18:18:26;12.60;99.90
19974;DHT22;10148;47.694;9.442;2022-09-21T18:26:24;12.40;99.90
19974;DHT22;10148;47.694;9.442;2022-09-21T18:28:51;12.30;99.90
19974;DHT22;10148;47.694;9.442;2022-09-21T18:42:20;12.10;99.90
19974;DHT22;10148;47.694;9.442;2022-09-21T18:44:58;12.00;99.90
19974;DHT22;10148;47.694;9.442;2022-09-21T18:51:09;11.90;99.90
19974;DHT22;10148;47.694;9.442;2022-09-21T18:55:37;11.90;99.90
19974;DHT22;10148;47.694;9.442;2022-09-21T18:58:03;11.80;99.90
19974;DHT22;10148;47.694;9.442;2022-09-21T19:00:30;11.80;99.90
19974;DHT22;10148;47.694;9.442;2022-09-21T19:03:03;11.70;99.90
19974;DHT22;10148;47.694;9.442;2022-09-21T19:05:30;11.70;99.90
19974;DHT22;10148;47.694;9.442;2022-09-21T19:07:59;11.70;99.90
19974;DHT22;10148;47.694;9.442;2022-09-21T19:10:32;11.60;99.90
19974;DHT22;10148;47.694;9.442;2022-09-21T19:16:02;11.50;99.90
19974;DHT22;10148;47.694;9.442;2022-09-21T19:18:51;11.50;99.90
19974;DHT22;10148;47.694;9.442;2022-09-21T19:27:13;11.40;99.90
19974;DHT22;10148;47.694;9.442;2022-09-21T19:30:01;11.40;99.90
19974;DHT22;10148;47.694;9.442;2022-09-21T19:32:45;11.40;99.90
19974;DHT22;10148;47.694;9.442;2022-09-21T19:35:21;11.30;99.90
19974;DHT22;10148;47.694;9.442;2022-09-21T19:37:49;11.30;99.90
19974;DHT22;10148;47.694;9.442;2022-09-21T19:40:16;11.30;99.90